Time;durP1;ratioP1;P1;durP2;ratioP2;P2;SDS_P1;SDS_P2;PMS_P1;PMS_P2;Temp;Humidity;BMP_temperature;BMP_pressure;BME280_temperature;BME280_humidity;BME280_pressure;Samples;Min_cycle;Max_cycle;Signal;HPM_P1;HPM_P2
2021/11/26 00:01:23;;;;;;;;;;;-0.30;99.90;;;;;;5052341;28;19928;-84
2021/11/26 00:03:49;;;;;;;;;;;-0.30;99.90;;;;;;5053625;28;19989;-84
2021/11/26 00:06:14;;;;;;;;;;;-0.30;99.90;;;;;;5053504;28;20400;-84
2021/11/26 00:08:40;;;;;;;;;;;-0.20;99.90;;;;;;5053721;28;19913;-84
2021/11/26 00:11:05;;;;;;;;;;;-0.30;99.90;;;;;;5052576;28;19904;-83
2021/11/26 00:13:39;;;;;;;;;;;-0.20;99.90;;;;;;5053963;28;19912;-84
2021/11/26 00:16:08;;;;;;;;;;;-0.30;99.90;;;;;;5053816;28;19951;-84
2021/11/26 00:18:42;;;;;;;;;;;-0.30;99.90;;;;;;5053948;28;19909;-84
2021/11/26 00:21:07;;;;;;;;;;;-0.30;99.90;;;;;;5053967;28;20028;-84
2021/11/26 00:23:33;;;;;;;;;;;-0.40;99.90;;;;;;5053950;28;19909;-84
2021/11/26 00:25:58;;;;;;;;;;;-0.50;99.90;;;;;;5053670;28;19912;-84
2021/11/26 00:28:24;;;;;;;;;;;-0.50;99.90;;;;;;5054071;28;19909;-84
2021/11/26 00:30:51;;;;;;;;;;;-0.50;99.90;;;;;;5066496;28;19956;-84
2021/11/26 00:33:16;;;;;;;;;;;-0.40;99.90;;;;;;5041349;28;19924;-83
2021/11/26 00:35:42;;;;;;;;;;;-0.50;99.90;;;;;;5065979;28;19909;-84
2021/11/26 00:38:08;;;;;;;;;;;-0.40;99.90;;;;;;5042544;28;19905;-84
2021/11/26 00:40:33;;;;;;;;;;;-0.50;99.90;;;;;;5049848;28;19904;-84
2021/11/26 00:42:59;;;;;;;;;;;-0.50;99.90;;;;;;5054064;28;20361;-84
2021/11/26 00:45:24;;;;;;;;;;;-0.40;99.90;;;;;;5053839;28;19908;-84
2021/11/26 00:47:50;;;;;;;;;;;-0.40;99.90;;;;;;5047519;28;19905;-84
2021/11/26 00:50:16;;;;;;;;;;;-0.40;99.90;;;;;;5047646;28;19909;-84
2021/11/26 00:52:42;;;;;;;;;;;-0.30;99.90;;;;;;5036836;28;19908;-84
2021/11/26 00:55:08;;;;;;;;;;;-0.20;99.90;;;;;;5046300;28;19908;-84
2021/11/26 00:57:33;;;;;;;;;;;-0.10;99.90;;;;;;5054829;28;19905;-84
2021/11/26 00:59:59;;;;;;;;;;;0.00;99.90;;;;;;5053512;28;19912;-84
2021/11/26 01:02:24;;;;;;;;;;;0.10;99.90;;;;;;5066726;28;20008;-84
2021/11/26 01:04:50;;;;;;;;;;;0.00;99.90;;;;;;5040522;28;20353;-84
2021/11/26 01:07:15;;;;;;;;;;;-0.10;99.90;;;;;;5042344;28;19948;-84
2021/11/26 01:09:41;;;;;;;;;;;-0.20;99.90;;;;;;5052163;28;20281;-84
2021/11/26 01:12:07;;;;;;;;;;;-0.30;99.90;;;;;;5063924;28;19904;-84
2021/11/26 01:14:34;;;;;;;;;;;-0.20;99.90;;;;;;5059937;28;19996;-84
2021/11/26 01:17:00;;;;;;;;;;;-0.20;99.90;;;;;;5065978;28;20320;-84
2021/11/26 01:19:25;;;;;;;;;;;-0.20;99.90;;;;;;5039776;28;19952;-84
2021/11/26 01:21:51;;;;;;;;;;;-0.30;99.90;;;;;;5053871;28;19905;-84
2021/11/26 01:24:16;;;;;;;;;;;-0.30;99.90;;;;;;5064396;28;19909;-84
2021/11/26 01:26:42;;;;;;;;;;;-0.30;99.90;;;;;;5055395;28;20327;-84
2021/11/26 01:29:07;;;;;;;;;;;-0.30;99.90;;;;;;5053079;28;19905;-84
2021/11/26 01:31:37;;;;;;;;;;;-0.20;99.90;;;;;;5064984;28;19904;-84
2021/11/26 01:34:03;;;;;;;;;;;-0.10;99.90;;;;;;5063817;28;19971;-84
2021/11/26 01:36:29;;;;;;;;;;;-0.10;99.90;;;;;;5042657;28;19905;-84
2021/11/26 01:38:55;;;;;;;;;;;-0.10;99.90;;;;;;5041382;28;19909;-84
2021/11/26 01:41:20;;;;;;;;;;;-0.10;99.90;;;;;;5062656;28;20261;-84
2021/11/26 01:43:46;;;;;;;;;;;-0.10;99.90;;;;;;5058566;28;19912;-84
2021/11/26 01:46:11;;;;;;;;;;;-0.10;99.90;;;;;;5052128;28;20021;-84
2021/11/26 01:48:38;;;;;;;;;;;-0.20;99.90;;;;;;5053121;28;19911;-84
2021/11/26 01:51:04;;;;;;;;;;;-0.20;99.90;;;;;;5052709;28;19904;-84
2021/11/26 01:53:30;;;;;;;;;;;-0.10;99.90;;;;;;5040998;28;19992;-84
2021/11/26 01:55:55;;;;;;;;;;;0.00;99.90;;;;;;5046660;28;20027;-84
2021/11/26 01:58:21;;;;;;;;;;;0.00;99.90;;;;;;5040462;28;19905;-84
2021/11/26 02:00:47;;;;;;;;;;;0.10;99.90;;;;;;5052688;28;19909;-84
2021/11/26 02:03:13;;;;;;;;;;;0.00;99.90;;;;;;5045023;28;19912;-84
2021/11/26 02:05:38;;;;;;;;;;;0.10;99.90;;;;;;5044580;28;19908;-81
2021/11/26 02:08:04;;;;;;;;;;;0.00;99.90;;;;;;5053238;28;19912;-81
2021/11/26 02:10:29;;;;;;;;;;;-0.10;99.90;;;;;;5053101;28;19904;-82
2021/11/26 02:12:55;;;;;;;;;;;-0.20;99.90;;;;;;5053075;28;19955;-82
2021/11/26 02:15:23;;;;;;;;;;;-0.30;99.90;;;;;;5053403;28;19904;-81
2021/11/26 02:17:50;;;;;;;;;;;-0.20;99.90;;;;;;5053578;28;19905;-82
2021/11/26 02:20:17;;;;;;;;;;;-0.30;99.90;;;;;;5053321;28;19940;-81
2021/11/26 02:22:42;;;;;;;;;;;-0.20;99.90;;;;;;5057118;28;20296;-82
2021/11/26 02:25:08;;;;;;;;;;;-0.30;99.90;;;;;;5037012;28;19916;-82
2021/11/26 02:27:34;;;;;;;;;;;-0.30;99.90;;;;;;5037173;28;19908;-82
2021/11/26 02:30:00;;;;;;;;;;;-0.40;99.90;;;;;;5035596;28;19963;-81
2021/11/26 02:32:25;;;;;;;;;;;-0.40;99.90;;;;;;5037061;28;19909;-84
2021/11/26 02:34:54;;;;;;;;;;;-0.40;99.90;;;;;;5051561;28;19917;-84
2021/11/26 02:37:19;;;;;;;;;;;-0.40;99.90;;;;;;5057140;28;19904;-84
2021/11/26 02:39:45;;;;;;;;;;;-0.40;99.90;;;;;;5055949;28;20003;-84
2021/11/26 02:42:10;;;;;;;;;;;-0.40;99.90;;;;;;5055382;28;19904;-84
2021/11/26 02:44:36;;;;;;;;;;;-0.50;99.90;;;;;;5056139;28;19915;-84
2021/11/26 02:47:01;;;;;;;;;;;-0.50;99.90;;;;;;5056211;28;19984;-84
2021/11/26 02:49:27;;;;;;;;;;;-0.40;99.90;;;;;;5056330;28;20373;-84
2021/11/26 02:51:52;;;;;;;;;;;-0.50;99.90;;;;;;5056221;28;19905;-84
2021/11/26 02:54:17;;;;;;;;;;;-0.50;99.90;;;;;;5048597;28;19937;-84
2021/11/26 02:56:43;;;;;;;;;;;-0.60;99.90;;;;;;5048070;28;19969;-84
2021/11/26 02:59:08;;;;;;;;;;;-0.60;99.90;;;;;;5050169;28;19905;-84
2021/11/26 03:01:34;;;;;;;;;;;-0.60;99.90;;;;;;5046595;28;20414;-84
2021/11/26 03:03:59;;;;;;;;;;;-0.60;99.90;;;;;;5041489;28;19912;-84
2021/11/26 03:06:25;;;;;;;;;;;-0.60;99.90;;;;;;5055863;28;19959;-84
2021/11/26 03:08:50;;;;;;;;;;;-0.60;99.90;;;;;;5055211;28;19908;-84
2021/11/26 03:11:16;;;;;;;;;;;-0.50;99.90;;;;;;5055816;28;19905;-84
2021/11/26 03:13:42;;;;;;;;;;;-0.50;99.90;;;;;;5054199;28;20336;-84
2021/11/26 03:16:08;;;;;;;;;;;-0.50;99.90;;;;;;5053884;28;19991;-84
2021/11/26 03:18:34;;;;;;;;;;;-0.50;99.90;;;;;;5055626;28;19995;-84
2021/11/26 03:20:59;;;;;;;;;;;-0.50;99.90;;;;;;5055734;28;19904;-84
2021/11/26 03:23:25;;;;;;;;;;;-0.50;99.90;;;;;;5047816;28;20344;-84
2021/11/26 03:25:51;;;;;;;;;;;-0.60;99.90;;;;;;5049619;28;19913;-84
2021/11/26 03:28:16;;;;;;;;;;;-0.60;99.90;;;;;;5055470;28;19988;-85
2021/11/26 03:30:42;;;;;;;;;;;-0.60;99.90;;;;;;5055487;28;19905;-85
2021/11/26 03:33:08;;;;;;;;;;;-0.60;99.90;;;;;;5053778;28;20345;-84
2021/11/26 03:35:34;;;;;;;;;;;-0.60;99.90;;;;;;5055707;28;19911;-84
2021/11/26 03:38:00;;;;;;;;;;;-0.60;99.90;;;;;;5055312;28;20003;-85
2021/11/26 03:40:27;;;;;;;;;;;-0.60;99.90;;;;;;5055396;28;19905;-84
2021/11/26 03:42:53;;;;;;;;;;;-0.60;99.90;;;;;;5055365;28;20062;-84
2021/11/26 03:45:19;;;;;;;;;;;-0.50;99.90;;;;;;5067651;28;20000;-84
2021/11/26 03:47:48;;;;;;;;;;;-0.60;99.90;;;;;;5053797;28;19938;-84
2021/11/26 03:50:13;;;;;;;;;;;-0.60;99.90;;;;;;5050374;28;19905;-84
2021/11/26 03:52:39;;;;;;;;;;;-0.60;99.90;;;;;;5044747;28;19905;-84
2021/11/26 03:55:07;;;;;;;;;;;-0.60;99.90;;;;;;5054876;28;19909;-84
2021/11/26 03:57:35;;;;;;;;;;;-0.60;99.90;;;;;;5055184;28;20254;-84
2021/11/26 04:00:04;;;;;;;;;;;-0.60;99.90;;;;;;5055149;28;19905;-84
2021/11/26 04:02:29;;;;;;;;;;;-0.60;99.90;;;;;;5054910;28;19904;-84
2021/11/26 04:04:55;;;;;;;;;;;-0.60;99.90;;;;;;5055298;28;19912;-84
2021/11/26 04:07:20;;;;;;;;;;;-0.60;99.90;;;;;;5049457;28;19905;-84
2021/11/26 04:09:46;;;;;;;;;;;-0.60;99.90;;;;;;5034838;28;19912;-84
2021/11/26 04:12:11;;;;;;;;;;;-0.60;99.90;;;;;;5053210;28;19984;-84
2021/11/26 04:14:37;;;;;;;;;;;-0.60;99.90;;;;;;5054944;28;19954;-84
2021/11/26 04:17:04;;;;;;;;;;;-0.60;99.90;;;;;;5055019;28;19918;-84
2021/11/26 04:19:30;;;;;;;;;;;-0.60;99.90;;;;;;5054243;28;19911;-84
2021/11/26 04:21:55;;;;;;;;;;;-0.60;99.90;;;;;;5052938;28;19953;-84
2021/11/26 04:24:21;;;;;;;;;;;-0.60;99.90;;;;;;5054427;28;20007;-82
2021/11/26 04:26:46;;;;;;;;;;;-0.60;99.90;;;;;;5054841;28;19948;-82
2021/11/26 04:29:12;;;;;;;;;;;-0.50;99.90;;;;;;5054803;28;19905;-82
2021/11/26 04:31:41;;;;;;;;;;;-0.50;99.90;;;;;;5054874;28;19905;-81
2021/11/26 04:34:08;;;;;;;;;;;-0.40;99.90;;;;;;5055019;28;19920;-82
2021/11/26 04:36:34;;;;;;;;;;;-0.50;99.90;;;;;;5054697;28;19921;-81
2021/11/26 04:38:59;;;;;;;;;;;-0.50;99.90;;;;;;5054733;28;19959;-82
2021/11/26 04:41:25;;;;;;;;;;;-0.50;99.90;;;;;;5054727;28;20360;-81
2021/11/26 04:43:50;;;;;;;;;;;-0.50;99.90;;;;;;5053958;28;20351;-81
2021/11/26 04:46:16;;;;;;;;;;;-0.50;99.90;;;;;;5054555;28;19909;-82
2021/11/26 04:48:41;;;;;;;;;;;-0.50;99.90;;;;;;5054362;28;19904;-82
2021/11/26 04:51:07;;;;;;;;;;;-0.50;99.90;;;;;;5054529;28;19904;-82
2021/11/26 04:53:32;;;;;;;;;;;-0.50;99.90;;;;;;5054212;28;19909;-82
2021/11/26 04:55:58;;;;;;;;;;;-0.50;99.90;;;;;;5054134;28;19928;-82
2021/11/26 04:58:23;;;;;;;;;;;-0.50;99.90;;;;;;5052773;28;19905;-82
2021/11/26 05:00:49;;;;;;;;;;;-0.50;99.90;;;;;;5054344;28;19905;-82
2021/11/26 05:03:14;;;;;;;;;;;-0.50;99.90;;;;;;5052691;28;19909;-82
2021/11/26 05:05:40;;;;;;;;;;;-0.50;99.90;;;;;;5052480;28;19913;-82
2021/11/26 05:08:06;;;;;;;;;;;-0.50;99.90;;;;;;5054067;28;20381;-82
2021/11/26 05:10:32;;;;;;;;;;;-0.40;99.90;;;;;;5053967;28;19912;-82
2021/11/26 05:12:58;;;;;;;;;;;-0.30;99.90;;;;;;5053004;28;19905;-80
2021/11/26 05:15:27;;;;;;;;;;;-0.30;99.90;;;;;;5054007;28;19905;-82
2021/11/26 05:17:57;;;;;;;;;;;-0.30;99.90;;;;;;5054205;28;20308;-86
2021/11/26 05:20:23;;;;;;;;;;;-0.40;99.90;;;;;;5053229;28;19905;-82
2021/11/26 05:22:49;;;;;;;;;;;-0.40;99.90;;;;;;5052478;28;19958;-82
2021/11/26 05:25:15;;;;;;;;;;;-0.30;99.90;;;;;;5053959;28;20008;-82
2021/11/26 05:27:40;;;;;;;;;;;-0.30;99.90;;;;;;5052992;28;20277;-82
2021/11/26 05:30:06;;;;;;;;;;;-0.40;99.90;;;;;;5054171;28;19904;-82
2021/11/26 05:32:32;;;;;;;;;;;-0.40;99.90;;;;;;5053953;28;19909;-82
2021/11/26 05:34:57;;;;;;;;;;;-0.40;99.90;;;;;;5053384;28;20335;-82
2021/11/26 05:37:23;;;;;;;;;;;-0.50;99.90;;;;;;5053555;28;19912;-82
2021/11/26 05:39:48;;;;;;;;;;;-0.40;99.90;;;;;;5054033;28;20371;-82
2021/11/26 05:42:14;;;;;;;;;;;-0.40;99.90;;;;;;5052269;28;19915;-82
2021/11/26 05:44:39;;;;;;;;;;;-0.40;99.90;;;;;;5053648;28;20015;-82
2021/11/26 05:47:05;;;;;;;;;;;-0.50;99.90;;;;;;5053443;28;20268;-82
2021/11/26 05:49:30;;;;;;;;;;;-0.40;99.90;;;;;;5052416;28;19912;-82
2021/11/26 05:51:56;;;;;;;;;;;-0.50;99.90;;;;;;5038096;28;20020;-82
2021/11/26 05:54:21;;;;;;;;;;;-0.40;99.90;;;;;;5040173;28;19912;-79
2021/11/26 05:56:47;;;;;;;;;;;-0.40;99.90;;;;;;5033721;28;19928;-81
2021/11/26 05:59:12;;;;;;;;;;;-0.40;99.90;;;;;;5033392;28;19912;-80
2021/11/26 06:01:38;;;;;;;;;;;-0.40;99.90;;;;;;5036774;28;19905;-79
2021/11/26 06:04:03;;;;;;;;;;;-0.50;99.90;;;;;;5052952;28;19927;-79
2021/11/26 06:06:29;;;;;;;;;;;-0.50;99.90;;;;;;5053016;28;19905;-79
2021/11/26 06:08:54;;;;;;;;;;;-0.50;99.90;;;;;;5053198;28;19985;-79
2021/11/26 06:11:20;;;;;;;;;;;-0.50;99.90;;;;;;5053491;28;19909;-82
2021/11/26 06:13:45;;;;;;;;;;;-0.40;99.90;;;;;;5035261;28;19905;-82
2021/11/26 06:16:11;;;;;;;;;;;-0.50;99.90;;;;;;5037806;28;20345;-83
2021/11/26 06:18:36;;;;;;;;;;;-0.50;99.90;;;;;;5059034;28;19905;-82
2021/11/26 06:21:02;;;;;;;;;;;-0.50;99.90;;;;;;5072337;28;19911;-80
2021/11/26 06:23:27;;;;;;;;;;;-0.50;99.90;;;;;;5052030;28;20030;-79
2021/11/26 06:25:52;;;;;;;;;;;-0.50;99.90;;;;;;5053652;28;19905;-82
2021/11/26 06:28:18;;;;;;;;;;;-0.50;99.90;;;;;;5053117;28;19905;-82
2021/11/26 06:30:43;;;;;;;;;;;-0.40;99.90;;;;;;5053040;28;19904;-82
2021/11/26 06:33:09;;;;;;;;;;;-0.40;99.90;;;;;;5052240;28;19963;-82
2021/11/26 06:35:36;;;;;;;;;;;-0.40;99.90;;;;;;5053216;28;19909;-82
2021/11/26 06:38:02;;;;;;;;;;;-0.40;99.90;;;;;;5066505;28;19904;-82
2021/11/26 06:40:28;;;;;;;;;;;-0.40;99.90;;;;;;5061903;28;20027;-82
2021/11/26 06:42:54;;;;;;;;;;;-0.40;99.90;;;;;;5040825;28;20360;-83
2021/11/26 06:45:20;;;;;;;;;;;-0.50;99.90;;;;;;5039251;28;19919;-83
2021/11/26 06:47:47;;;;;;;;;;;-0.50;99.90;;;;;;5039005;28;19909;-83
2021/11/26 06:50:15;;;;;;;;;;;-0.50;99.90;;;;;;5042714;28;19920;-83
2021/11/26 06:52:41;;;;;;;;;;;-0.50;99.90;;;;;;5048402;28;19908;-82
2021/11/26 06:55:07;;;;;;;;;;;-0.50;99.90;;;;;;5044410;28;20384;-83
2021/11/26 06:57:33;;;;;;;;;;;-0.50;99.90;;;;;;5047054;28;20280;-80
2021/11/26 06:59:59;;;;;;;;;;;-0.50;99.90;;;;;;5042532;28;19909;-82
2021/11/26 07:02:24;;;;;;;;;;;-0.50;99.90;;;;;;5048972;28;19916;-82
2021/11/26 07:04:50;;;;;;;;;;;-0.50;99.90;;;;;;5051378;28;20280;-82
2021/11/26 07:07:15;;;;;;;;;;;-0.50;99.90;;;;;;5048933;28;19999;-82
2021/11/26 07:09:41;;;;;;;;;;;-0.50;99.90;;;;;;5044775;28;19892;-82
2021/11/26 07:12:10;;;;;;;;;;;-0.50;99.90;;;;;;5068741;28;19944;-82
2021/11/26 07:14:39;;;;;;;;;;;-0.50;99.90;;;;;;5065191;28;19912;-82
2021/11/26 07:17:07;;;;;;;;;;;-0.50;99.90;;;;;;5056108;28;19921;-83
2021/11/26 07:19:33;;;;;;;;;;;-0.50;99.90;;;;;;5041340;28;19967;-83
2021/11/26 07:21:58;;;;;;;;;;;-0.50;99.90;;;;;;5045974;28;19912;-80
2021/11/26 07:24:24;;;;;;;;;;;-0.40;99.90;;;;;;5046899;28;19920;-80
2021/11/26 07:26:49;;;;;;;;;;;-0.40;99.90;;;;;;5052828;28;19938;-82
2021/11/26 07:29:14;;;;;;;;;;;-0.40;99.90;;;;;;5054797;28;19951;-82
2021/11/26 07:31:40;;;;;;;;;;;-0.40;99.90;;;;;;5047298;28;19909;-82
2021/11/26 07:34:05;;;;;;;;;;;-0.40;99.90;;;;;;5042553;28;19955;-83
2021/11/26 07:36:31;;;;;;;;;;;-0.40;99.90;;;;;;5046103;28;19999;-83
2021/11/26 07:38:56;;;;;;;;;;;-0.40;99.90;;;;;;5041055;28;19908;-83
2021/11/26 07:41:24;;;;;;;;;;;-0.30;99.90;;;;;;5042302;28;19913;-83
2021/11/26 07:43:50;;;;;;;;;;;-0.40;99.90;;;;;;5042018;28;19909;-83
2021/11/26 07:46:15;;;;;;;;;;;-0.30;99.90;;;;;;5041989;28;19924;-83
2021/11/26 07:48:42;;;;;;;;;;;-0.30;99.90;;;;;;5042923;28;19967;-80
2021/11/26 07:51:07;;;;;;;;;;;-0.30;99.90;;;;;;5047990;28;19970;-80
2021/11/26 07:53:33;;;;;;;;;;;-0.30;99.90;;;;;;5053218;28;19913;-82
2021/11/26 07:55:59;;;;;;;;;;;-0.30;99.90;;;;;;5047244;28;19909;-80
2021/11/26 07:58:24;;;;;;;;;;;-0.30;99.90;;;;;;5045183;28;19909;-80
2021/11/26 08:00:50;;;;;;;;;;;-0.30;99.90;;;;;;5053069;28;19962;-82
2021/11/26 08:03:18;;;;;;;;;;;-0.30;99.90;;;;;;5057637;28;19904;-82
2021/11/26 08:05:43;;;;;;;;;;;-0.30;99.90;;;;;;5065873;28;19913;-82
2021/11/26 08:08:09;;;;;;;;;;;-0.20;99.90;;;;;;5064329;28;20368;-82
2021/11/26 08:10:37;;;;;;;;;;;-0.20;99.90;;;;;;5050219;28;19967;-82
2021/11/26 08:13:04;;;;;;;;;;;-0.20;99.90;;;;;;5071217;28;19911;-82
2021/11/26 08:15:31;;;;;;;;;;;-0.20;99.90;;;;;;5064608;28;19971;-82
2021/11/26 08:17:57;;;;;;;;;;;-0.20;99.90;;;;;;5060478;28;20003;-82
2021/11/26 08:20:23;;;;;;;;;;;-0.20;99.90;;;;;;5040039;28;19916;-82
2021/11/26 08:22:48;;;;;;;;;;;-0.20;99.90;;;;;;5033683;28;19905;-82
2021/11/26 08:25:14;;;;;;;;;;;-0.20;99.90;;;;;;5034780;28;19909;-82
2021/11/26 08:27:40;;;;;;;;;;;-0.20;99.90;;;;;;5036530;28;19942;-81
2021/11/26 08:30:05;;;;;;;;;;;-0.20;99.90;;;;;;5034998;28;19996;-81
2021/11/26 08:32:31;;;;;;;;;;;-0.20;99.90;;;;;;5034802;28;19905;-81
2021/11/26 08:34:57;;;;;;;;;;;-0.20;99.90;;;;;;5034559;28;20377;-81
2021/11/26 08:37:23;;;;;;;;;;;-0.20;99.90;;;;;;5035170;28;19912;-81
2021/11/26 08:39:49;;;;;;;;;;;-0.20;99.90;;;;;;5035625;28;19912;-81
2021/11/26 08:42:15;;;;;;;;;;;-0.20;99.90;;;;;;5039632;28;20292;-82
2021/11/26 08:44:40;;;;;;;;;;;-0.20;99.90;;;;;;5038984;28;20436;-81
2021/11/26 08:47:06;;;;;;;;;;;-0.10;99.90;;;;;;5037467;28;20333;-81
2021/11/26 08:49:31;;;;;;;;;;;-0.10;99.90;;;;;;5034739;28;20317;-81
2021/11/26 08:51:58;;;;;;;;;;;-0.10;99.90;;;;;;5039955;28;20349;-81
2021/11/26 08:54:26;;;;;;;;;;;-0.10;99.90;;;;;;5043476;28;19916;-81
2021/11/26 08:56:54;;;;;;;;;;;-0.10;99.90;;;;;;5054447;28;19932;-81
2021/11/26 08:59:20;;;;;;;;;;;-0.10;99.90;;;;;;5041304;28;19961;-82
2021/11/26 09:01:47;;;;;;;;;;;-0.10;99.90;;;;;;5040909;28;19912;-82
2021/11/26 09:04:12;;;;;;;;;;;-0.10;99.90;;;;;;5040747;28;19909;-82
2021/11/26 09:06:38;;;;;;;;;;;-0.10;99.90;;;;;;5044314;28;19916;-82
2021/11/26 09:09:04;;;;;;;;;;;-0.10;99.90;;;;;;5042712;28;19908;-82
2021/11/26 09:11:30;;;;;;;;;;;-0.10;99.90;;;;;;5042152;28;19909;-81
2021/11/26 09:13:56;;;;;;;;;;;-0.10;99.90;;;;;;5045559;28;20376;-81
2021/11/26 09:16:22;;;;;;;;;;;-0.10;99.90;;;;;;5053813;28;20399;-81
2021/11/26 09:18:48;;;;;;;;;;;-0.10;99.90;;;;;;5044139;28;19912;-82
2021/11/26 09:21:14;;;;;;;;;;;-0.20;99.90;;;;;;5046834;28;19969;-82
2021/11/26 09:23:41;;;;;;;;;;;-0.20;99.90;;;;;;5045603;28;20003;-82
2021/11/26 09:26:07;;;;;;;;;;;-0.20;99.90;;;;;;5043911;28;20392;-82
2021/11/26 09:28:32;;;;;;;;;;;-0.20;99.90;;;;;;5044223;28;19962;-82
2021/11/26 09:30:58;;;;;;;;;;;-0.20;99.90;;;;;;5042418;28;20254;-82
2021/11/26 09:33:29;;;;;;;;;;;-0.20;99.90;;;;;;5043668;28;20277;-81
2021/11/26 09:35:54;;;;;;;;;;;-0.10;99.90;;;;;;5033677;28;19909;-81
2021/11/26 09:38:20;;;;;;;;;;;-0.10;99.90;;;;;;5033319;28;19916;-81
2021/11/26 09:40:45;;;;;;;;;;;-0.10;99.90;;;;;;5034117;28;19905;-81
2021/11/26 09:43:13;;;;;;;;;;;-0.10;99.90;;;;;;5036174;28;19974;-80
2021/11/26 09:45:39;;;;;;;;;;;-0.10;99.90;;;;;;5036790;28;20365;-80
2021/11/26 09:48:04;;;;;;;;;;;-0.10;99.90;;;;;;5047874;28;19940;-80
2021/11/26 09:50:32;;;;;;;;;;;-0.10;99.90;;;;;;5043093;28;20353;-80
2021/11/26 09:53:09;;;;;;;;;;;0.00;99.90;;;;;;5039755;28;19999;-80
2021/11/26 09:55:34;;;;;;;;;;;0.00;99.90;;;;;;5037895;28;19909;-80
2021/11/26 09:57:59;;;;;;;;;;;0.00;99.90;;;;;;5040811;28;19947;-82
2021/11/26 10:00:26;;;;;;;;;;;0.00;99.90;;;;;;5038079;28;19913;-82
2021/11/26 10:02:53;;;;;;;;;;;0.10;99.90;;;;;;5039820;28;19961;-82
2021/11/26 10:05:18;;;;;;;;;;;0.10;99.90;;;;;;5040500;28;19919;-82
2021/11/26 10:07:45;;;;;;;;;;;0.10;99.90;;;;;;5039762;28;20628;-82
2021/11/26 10:10:11;;;;;;;;;;;0.20;99.90;;;;;;5042006;28;19909;-82
2021/11/26 10:12:36;;;;;;;;;;;0.20;99.90;;;;;;5043428;28;19909;-82
2021/11/26 10:15:05;;;;;;;;;;;0.30;99.90;;;;;;5039028;28;19932;-81
2021/11/26 10:17:31;;;;;;;;;;;0.30;99.90;;;;;;5033010;28;19955;-81
2021/11/26 10:19:56;;;;;;;;;;;0.40;99.90;;;;;;5032912;28;20308;-81
2021/11/26 10:22:22;;;;;;;;;;;0.40;99.90;;;;;;5032883;28;19971;-81
2021/11/26 10:25:03;;;;;;;;;;;0.40;99.90;;;;;;5033197;28;20003;-81
2021/11/26 10:27:46;;;;;;;;;;;0.50;99.90;;;;;;5032848;28;19975;-81
2021/11/26 10:30:18;;;;;;;;;;;0.60;99.90;;;;;;5038962;28;19951;-79
2021/11/26 10:33:01;;;;;;;;;;;0.60;99.90;;;;;;5052591;28;20372;-80
2021/11/26 10:35:26;;;;;;;;;;;0.60;99.90;;;;;;5033207;28;19964;-80
2021/11/26 10:37:56;;;;;;;;;;;0.60;99.90;;;;;;5032764;28;19948;-80
2021/11/26 10:40:24;;;;;;;;;;;0.70;99.90;;;;;;5040286;28;19905;-80
2021/11/26 10:42:49;;;;;;;;;;;0.70;99.90;;;;;;5054984;28;19951;-80
2021/11/26 10:45:20;;;;;;;;;;;0.70;99.90;;;;;;5056318;28;19952;-80
2021/11/26 10:47:54;;;;;;;;;;;0.70;99.90;;;;;;5056753;28;19951;-80
2021/11/26 10:50:45;;;;;;;;;;;0.70;99.90;;;;;;5055848;28;19905;-79
2021/11/26 10:58:33;;;;;;;;;;;0.90;99.90;;;;;;5044351;28;20287;-79
2021/11/26 11:01:03;;;;;;;;;;;0.90;99.90;;;;;;5036269;28;19909;-79
2021/11/26 11:03:28;;;;;;;;;;;1.00;99.90;;;;;;5036953;28;19911;-80
2021/11/26 11:05:54;;;;;;;;;;;1.00;99.90;;;;;;5050539;28;20011;-80
2021/11/26 11:08:27;;;;;;;;;;;1.00;99.90;;;;;;5048384;28;19917;-80
2021/11/26 11:10:54;;;;;;;;;;;1.10;99.90;;;;;;5052840;28;19956;-80
2021/11/26 11:15:51;;;;;;;;;;;1.10;99.90;;;;;;5051027;28;21073;-78
2021/11/26 11:18:17;;;;;;;;;;;1.10;99.90;;;;;;5041742;28;19916;-79
2021/11/26 11:20:43;;;;;;;;;;;1.00;99.90;;;;;;5051731;28;20368;-82
2021/11/26 11:23:14;;;;;;;;;;;1.10;99.90;;;;;;5039606;28;19932;-79
2021/11/26 11:25:41;;;;;;;;;;;1.10;99.90;;;;;;5048298;28;20333;-79
2021/11/26 11:28:09;;;;;;;;;;;1.10;99.90;;;;;;5047312;28;20003;-79
2021/11/26 11:30:35;;;;;;;;;;;1.00;99.90;;;;;;5051565;28;19908;-78
2021/11/26 11:33:02;;;;;;;;;;;1.10;99.90;;;;;;5051219;28;20336;-78
2021/11/26 11:35:29;;;;;;;;;;;1.10;99.90;;;;;;5049328;28;20384;-80
2021/11/26 11:37:55;;;;;;;;;;;1.00;99.90;;;;;;5046714;28;20428;-80
2021/11/26 11:40:50;;;;;;;;;;;0.90;99.90;;;;;;5036326;28;20266;-80
2021/11/26 11:43:18;;;;;;;;;;;0.90;99.90;;;;;;5037888;28;20518;-80
2021/11/26 11:46:14;;;;;;;;;;;0.90;99.90;;;;;;5045433;28;19913;-80
2021/11/26 11:48:44;;;;;;;;;;;0.90;99.90;;;;;;5034838;28;19924;-80
2021/11/26 11:51:19;;;;;;;;;;;0.80;99.90;;;;;;5045838;28;19918;-80
2021/11/26 11:53:44;;;;;;;;;;;0.80;99.90;;;;;;5035820;28;19924;-80
2021/11/26 11:56:11;;;;;;;;;;;0.80;99.90;;;;;;5045063;28;19974;-80
2021/11/26 11:59:05;;;;;;;;;;;0.80;99.90;;;;;;5046060;28;19919;-80
2021/11/26 12:01:38;;;;;;;;;;;0.80;99.90;;;;;;5043967;28;19919;-80
2021/11/26 12:04:16;;;;;;;;;;;0.80;99.90;;;;;;5044879;28;19916;-81
2021/11/26 12:06:43;;;;;;;;;;;0.80;99.90;;;;;;5054526;28;19923;-78
2021/11/26 12:09:19;;;;;;;;;;;0.70;99.90;;;;;;5054310;28;19931;-79
2021/11/26 12:11:44;;;;;;;;;;;0.80;99.90;;;;;;5053818;28;19999;-77
2021/11/26 12:14:14;;;;;;;;;;;0.80;99.90;;;;;;5054341;28;19967;-76
2021/11/26 12:16:46;;;;;;;;;;;0.80;99.90;;;;;;5054742;28;20384;-78
2021/11/26 12:19:18;;;;;;;;;;;0.90;99.90;;;;;;5054641;28;19920;-77
2021/11/26 12:21:45;;;;;;;;;;;0.90;99.90;;;;;;5037289;28;19916;-80
2021/11/26 12:24:23;;;;;;;;;;;0.90;99.90;;;;;;5035152;28;19913;-80
2021/11/26 12:26:53;;;;;;;;;;;0.90;99.90;;;;;;5043458;28;19924;-80
2021/11/26 12:29:21;;;;;;;;;;;1.00;99.90;;;;;;5041990;28;19960;-77
2021/11/26 12:31:50;;;;;;;;;;;1.00;99.90;;;;;;5053498;28;19975;-79
2021/11/26 12:34:18;;;;;;;;;;;1.10;99.90;;;;;;5050645;28;20069;-77
2021/11/26 12:36:55;;;;;;;;;;;1.00;99.90;;;;;;5050850;28;20331;-77
2021/11/26 12:39:23;;;;;;;;;;;1.00;99.90;;;;;;5051991;28;19956;-76
2021/11/26 12:41:51;;;;;;;;;;;1.00;99.90;;;;;;5053520;28;19996;-76
2021/11/26 12:44:22;;;;;;;;;;;1.00;99.90;;;;;;5053872;28;19916;-76
2021/11/26 12:46:59;;;;;;;;;;;1.00;99.90;;;;;;5049077;28;19908;-77
2021/11/26 12:51:03;;;;;;;;;;;1.00;99.90;;;;;;5052770;28;19921;-77
2021/11/26 12:52:15;;;;;;;;;;;1.00;99.90;;;;;;5050963;28;19917;-78
2021/11/26 12:54:45;;;;;;;;;;;1.00;99.90;;;;;;5049279;28;19975;-79
2021/11/26 12:57:30;;;;;;;;;;;0.90;99.90;;;;;;5048252;28;19916;-79
2021/11/26 13:00:00;;;;;;;;;;;0.90;99.90;;;;;;5040975;28;20242;-79
2021/11/26 13:02:26;;;;;;;;;;;0.90;99.90;;;;;;5049141;28;20051;-79
2021/11/26 13:04:55;;;;;;;;;;;0.90;99.90;;;;;;5048665;28;20327;-79
2021/11/26 13:07:23;;;;;;;;;;;0.90;99.90;;;;;;5049824;28;19916;-79
2021/11/26 13:09:59;;;;;;;;;;;0.80;99.90;;;;;;5049706;28;20042;-79
2021/11/26 13:12:30;;;;;;;;;;;0.80;99.90;;;;;;5041967;28;20016;-79
2021/11/26 13:14:56;;;;;;;;;;;0.90;99.90;;;;;;5049476;28;19947;-77
2021/11/26 13:17:38;;;;;;;;;;;0.90;99.90;;;;;;5052051;28;20624;-77
2021/11/26 13:20:14;;;;;;;;;;;0.90;99.90;;;;;;5051522;28;19912;-77
2021/11/26 13:22:41;;;;;;;;;;;0.80;99.90;;;;;;5044526;28;19912;-77
2021/11/26 13:25:06;;;;;;;;;;;0.80;99.90;;;;;;5044564;28;19921;-77
2021/11/26 13:27:32;;;;;;;;;;;0.80;99.90;;;;;;5051608;28;19919;-77
2021/11/26 13:29:58;;;;;;;;;;;0.80;99.90;;;;;;5048640;28;19916;-80
2021/11/26 13:32:23;;;;;;;;;;;0.70;99.90;;;;;;5044406;28;20377;-81
2021/11/26 13:34:53;;;;;;;;;;;0.70;99.90;;;;;;5035114;28;20722;-81
2021/11/26 13:37:19;;;;;;;;;;;0.70;99.90;;;;;;5033848;28;19938;-81
2021/11/26 13:39:53;;;;;;;;;;;0.70;99.90;;;;;;5034424;28;20329;-81
2021/11/26 13:42:18;;;;;;;;;;;0.70;99.90;;;;;;5041453;28;19912;-81
2021/11/26 13:44:45;;;;;;;;;;;0.70;99.90;;;;;;5034176;28;20596;-81
2021/11/26 13:47:11;;;;;;;;;;;0.70;99.90;;;;;;5034220;28;19916;-81
2021/11/26 13:49:37;;;;;;;;;;;0.70;99.90;;;;;;5042882;28;19990;-81
2021/11/26 13:52:07;;;;;;;;;;;0.70;99.90;;;;;;5043517;28;20353;-81
2021/11/26 13:54:33;;;;;;;;;;;0.70;99.90;;;;;;5043301;28;19920;-81
2021/11/26 13:56:59;;;;;;;;;;;0.70;99.90;;;;;;5050875;28;19909;-77
2021/11/26 13:59:26;;;;;;;;;;;0.70;99.90;;;;;;5050470;28;20019;-77
2021/11/26 14:02:03;;;;;;;;;;;0.70;99.90;;;;;;5042841;28;19916;-77
2021/11/26 14:04:28;;;;;;;;;;;0.80;99.90;;;;;;5051536;28;20357;-77
2021/11/26 14:06:58;;;;;;;;;;;0.70;99.90;;;;;;5051238;28;19989;-77
2021/11/26 14:09:24;;;;;;;;;;;0.70;99.90;;;;;;5051538;28;19908;-77
2021/11/26 14:11:50;;;;;;;;;;;0.70;99.90;;;;;;5051141;28;20276;-77
2021/11/26 14:14:16;;;;;;;;;;;0.70;99.90;;;;;;5051206;28;19913;-77
2021/11/26 14:16:53;;;;;;;;;;;0.70;99.90;;;;;;5054003;28;20011;-77
2021/11/26 14:19:39;;;;;;;;;;;0.70;99.90;;;;;;5056120;28;19917;-77
2021/11/26 14:22:06;;;;;;;;;;;0.70;99.90;;;;;;5054153;28;19947;-77
2021/11/26 14:24:42;;;;;;;;;;;0.70;99.90;;;;;;5055941;28;19908;-77
2021/11/26 14:27:08;;;;;;;;;;;0.60;99.90;;;;;;5054364;28;19909;-77
2021/11/26 14:29:34;;;;;;;;;;;0.70;99.90;;;;;;5055854;28;20267;-77